Messwerte Kiritimati

Temperatur

Temperatur
°C
1574388000 16.00 16.00 29
1574391600 17.00 17.00 29
1574395200 18.00 18.00 28
1574398800 19.00 19.00
1574402400 20.00 20.00 28
1574406000 21.00 21.00 27
1574409600 22.00 22.00 27
1574413200 23.00 23.00 27
1574416800 0.00 0.00 27
1574420400 1.00 1.00 27
1574424000 2.00 2.00 27
1574427600 3.00 3.00
1574431200 4.00 4.00 27
1574434800 5.00 5.00 27
1574438400 6.00 6.00
1574442000 7.00 7.00 27
1574445600 8.00 8.00 28
1574449200 9.00 9.00 29
1574452800 10.00 10.00
1574456400 11.00 11.00 29
1574460000 12.00 12.00 30
1574463600 13.00 13.00 30
1574467200 14.00 14.00 31
1574470800 15.00 15.00 30

Aktuellste Messwerte

Wettercharakter
Wetter: freundlich
Temperatur
30 °C
Feuchtigkeit
75 %
Wind
25 km/hWindrichtung: Südost
Luftdruck
1005 hPa
Messzeit: 23. November 2019, 15.00Datenquelle: METAR

Wind

Windrichtung Böen Mittelwind
° km/h km/h
1574388000 16.00 15.00 - 16.00 80° 20
1574391600 17.00 16.00 - 17.00 80° 20
1574395200 18.00 17.00 - 18.00 100° 10
1574398800 19.00 18.00 - 19.00
1574402400 20.00 19.00 - 20.00 90° 5
1574406000 21.00 20.00 - 21.00 100° 5
1574409600 22.00 21.00 - 22.00 100° 10
1574413200 23.00 22.00 - 23.00 100° 10
1574416800 0.00 23.00 - 0.00 100° 10
1574420400 1.00 0.00 - 1.00 100° 10
1574424000 2.00 1.00 - 2.00 90° 10
1574427600 3.00 2.00 - 3.00
1574431200 4.00 3.00 - 4.00 110° 10
1574434800 5.00 4.00 - 5.00 110° 10
1574438400 6.00 5.00 - 6.00
1574442000 7.00 6.00 - 7.00 110° 10
1574445600 8.00 7.00 - 8.00 120° 15
1574449200 9.00 8.00 - 9.00 100° 15
1574452800 10.00 9.00 - 10.00
1574456400 11.00 10.00 - 11.00 110° 15
1574460000 12.00 11.00 - 12.00 110° 20
1574463600 13.00 12.00 - 13.00 110° 35 20
1574467200 14.00 13.00 - 14.00 120° 20
1574470800 15.00 14.00 - 15.00 120° 25

Ihre Wetterstation

Fehlt Ihre Wetterstation auf unserem Portal?

Schreiben Sie an network@meteonews.ch